Time;durP1;ratioP1;P1;durP2;ratioP2;P2;SDS_P1;SDS_P2;PMS_P1;PMS_P2;Temp;Humidity;BMP_temperature;BMP_pressure;BME280_temperature;BME280_humidity;BME280_pressure;Samples;Min_cycle;Max_cycle;Signal;HPM_P1;HPM_P2
2023/01/18 00:00:29;;;;;;;40.92;23.48;;;0.60;99.90;;;;;;5030898;28;20036;-76
2023/01/18 00:02:56;;;;;;;37.47;23.55;;;0.60;99.90;;;;;;5035531;28;20037;-74
2023/01/18 00:05:22;;;;;;;44.10;27.83;;;0.50;99.90;;;;;;5054441;28;20368;-75
2023/01/18 00:07:49;;;;;;;38.40;24.33;;;0.50;99.90;;;;;;5052368;28;20029;-77
2023/01/18 00:10:15;;;;;;;50.20;26.77;;;0.50;99.90;;;;;;5054317;28;20029;-76
2023/01/18 00:12:41;;;;;;;49.78;25.65;;;0.60;99.90;;;;;;5054143;28;20372;-75
2023/01/18 00:15:08;;;;;;;48.22;24.80;;;0.50;99.90;;;;;;5054224;28;20021;-76
2023/01/18 00:17:46;;;;;;;46.63;25.33;;;0.60;99.90;;;;;;5054354;28;20116;-74
2023/01/18 00:20:15;;;;;;;45.90;24.20;;;0.60;99.90;;;;;;5054360;28;20103;-75
2023/01/18 00:22:41;;;;;;;55.90;26.83;;;0.60;99.90;;;;;;5054273;28;20483;-75
2023/01/18 00:25:09;;;;;;;46.47;24.08;;;0.60;99.90;;;;;;5049304;28;20034;-77
2023/01/18 00:27:36;;;;;;;52.35;30.08;;;0.60;99.90;;;;;;5051548;28;20054;-76
2023/01/18 00:30:07;;;;;;;50.38;27.15;;;0.60;99.90;;;;;;5036122;28;20024;-74
2023/01/18 00:32:33;;;;;;;40.88;25.02;;;0.60;99.90;;;;;;5052726;28;20055;-75
2023/01/18 00:35:06;;;;;;;49.60;26.88;;;0.60;99.90;;;;;;5047911;28;20028;-76
2023/01/18 00:37:32;;;;;;;52.72;27.42;;;0.60;99.90;;;;;;5047367;28;20021;-76
2023/01/18 00:39:58;;;;;;;44.90;26.88;;;0.60;99.90;;;;;;5053806;28;20541;-77
2023/01/18 00:45:18;;;;;;;52.58;30.25;;;0.60;99.90;;;;;;4997104;28;20038;-76
2023/01/18 00:47:44;;;;;;;45.95;23.50;;;0.70;99.90;;;;;;5047338;28;20472;-75
2023/01/18 00:50:10;;;;;;;39.55;23.00;;;0.70;99.90;;;;;;5053598;28;20024;-76
2023/01/18 00:52:37;;;;;;;54.97;28.67;;;0.70;99.90;;;;;;5053386;28;20381;-74
2023/01/18 00:55:04;;;;;;;44.47;23.55;;;0.70;99.90;;;;;;5035451;28;20096;-75
2023/01/18 00:57:30;;;;;;;55.95;31.50;;;0.70;99.90;;;;;;5032567;28;20053;-74
2023/01/18 00:59:56;;;;;;;53.45;29.67;;;0.60;99.90;;;;;;5053383;28;20110;-74
2023/01/18 01:02:22;;;;;;;53.60;31.00;;;0.70;99.90;;;;;;5053132;28;20037;-76
2023/01/18 01:07:32;;;;;;;46.50;26.83;;;0.70;99.90;;;;;;5048282;28;20028;-77
2023/01/18 01:09:58;;;;;;;51.22;28.85;;;0.70;99.90;;;;;;5053192;28;20028;-75
2023/01/18 01:26:09;;;;;;;44.65;26.75;;;0.50;99.90;;;;;;5040110;28;20036;-76
2023/01/18 01:28:50;;;;;;;43.67;23.35;;;0.50;99.90;;;;;;5053012;28;20507;-75
2023/01/18 01:31:17;;;;;;;43.42;25.10;;;0.50;99.90;;;;;;5040016;28;20032;-75
2023/01/18 01:33:44;;;;;;;43.20;27.05;;;0.50;99.90;;;;;;5051170;28;20044;-77
2023/01/18 01:36:12;;;;;;;45.17;27.45;;;0.50;99.90;;;;;;5052630;28;20029;-74
2023/01/18 01:38:40;;;;;;;42.58;26.45;;;0.60;99.90;;;;;;5050546;28;20461;-75
2023/01/18 01:41:15;;;;;;;42.83;24.23;;;0.60;99.90;;;;;;5052628;28;20048;-75
2023/01/18 01:43:45;;;;;;;52.90;27.55;;;0.60;99.90;;;;;;5052579;28;20037;-75
2023/01/18 01:46:34;;;;;;;38.80;24.02;;;0.60;99.90;;;;;;5032467;28;20021;-74
2023/01/18 01:49:14;;;;;;;40.17;23.15;;;0.60;99.90;;;;;;5040085;28;20040;-74
2023/01/18 01:51:44;;;;;;;47.30;24.67;;;0.60;99.90;;;;;;5024050;28;20029;-75
2023/01/18 01:54:15;;;;;;;36.58;21.77;;;0.60;99.90;;;;;;5052419;28;20040;-74
2023/01/18 01:56:44;;;;;;;44.40;23.38;;;0.60;99.90;;;;;;5034935;28;20049;-74
2023/01/18 01:59:10;;;;;;;38.58;23.40;;;0.60;99.90;;;;;;5047371;28;20041;-76
2023/01/18 02:01:38;;;;;;;37.97;22.60;;;0.60;99.90;;;;;;5052196;28;20079;-74
2023/01/18 02:04:04;;;;;;;37.50;22.85;;;0.60;99.90;;;;;;5052493;28;20043;-74
2023/01/18 02:06:35;;;;;;;40.10;22.48;;;0.60;99.90;;;;;;5036257;28;20021;-75
2023/01/18 02:09:12;;;;;;;39.10;22.23;;;0.60;99.90;;;;;;5051557;28;20021;-76
2023/01/18 02:11:39;;;;;;;38.17;22.00;;;0.60;99.90;;;;;;5052133;28;20025;-74
2023/01/18 02:14:12;;;;;;;37.33;23.55;;;0.70;99.90;;;;;;5051844;28;20100;-75
2023/01/18 02:17:08;;;;;;;32.53;19.95;;;0.70;99.90;;;;;;5051959;28;20029;-76
2023/01/18 02:20:18;;;;;;;42.38;24.88;;;0.70;99.90;;;;;;5043316;28;20024;-75
2023/01/18 02:22:47;;;;;;;39.58;23.27;;;0.70;99.90;;;;;;5051879;28;20028;-74
2023/01/18 02:25:44;;;;;;;41.42;23.38;;;0.70;99.90;;;;;;5051277;28;20086;-75
2023/01/18 02:28:22;;;;;;;34.78;18.75;;;0.70;99.90;;;;;;5045185;28;20112;-74
2023/01/18 02:31:00;;;;;;;42.65;23.50;;;0.70;99.90;;;;;;5049017;28;20017;-75
2023/01/18 02:33:35;;;;;;;37.45;23.30;;;0.60;99.90;;;;;;5047734;28;20025;-74
2023/01/18 02:36:02;;;;;;;40.53;21.55;;;0.60;99.90;;;;;;5051649;28;20088;-74
2023/01/18 02:38:43;;;;;;;35.28;22.27;;;0.60;99.90;;;;;;5050721;28;20021;-74
2023/01/18 02:41:22;;;;;;;39.03;22.08;;;0.60;99.90;;;;;;5050928;28;20023;-76
2023/01/18 02:46:38;;;;;;;42.67;22.20;;;0.60;99.90;;;;;;5044336;28;20558;-73
2023/01/18 02:49:08;;;;;;;39.80;21.38;;;0.70;99.90;;;;;;5044867;28;20063;-74
2023/01/18 02:51:35;;;;;;;51.17;25.05;;;0.70;99.90;;;;;;5043474;28;20041;-74
2023/01/18 02:54:03;;;;;;;34.55;22.30;;;0.70;99.90;;;;;;5051431;28;20025;-75
2023/01/18 02:56:48;;;;;;;38.35;22.17;;;0.70;99.90;;;;;;5051228;28;20115;-74
2023/01/18 02:59:28;;;;;;;36.05;21.35;;;0.70;99.90;;;;;;5030181;28;20041;-73
2023/01/18 03:02:01;;;;;;;44.72;23.42;;;0.70;99.90;;;;;;5037066;28;20052;-74
2023/01/18 03:04:32;;;;;;;37.30;19.50;;;0.80;99.90;;;;;;5051367;28;20529;-73
2023/01/18 03:07:10;;;;;;;37.42;18.05;;;0.70;99.90;;;;;;5051321;28;20438;-74
2023/01/18 03:09:36;;;;;;;40.47;21.17;;;0.70;99.90;;;;;;5051618;28;20065;-76
2023/01/18 03:12:24;;;;;;;29.85;17.00;;;0.70;99.90;;;;;;5049923;28;20017;-75
2023/01/18 03:14:55;;;;;;;37.45;21.73;;;0.70;99.90;;;;;;5051398;28;20025;-73
2023/01/18 03:17:36;;;;;;;35.53;21.10;;;0.70;99.90;;;;;;5049625;28;20092;-75
2023/01/18 03:20:10;;;;;;;36.38;20.40;;;0.70;99.90;;;;;;5051246;28;20480;-75
2023/01/18 03:25:31;;;;;;;36.22;21.45;;;0.70;99.90;;;;;;5051081;28;20079;-73
2023/01/18 03:33:44;;;;;;;38.33;20.23;;;0.80;99.90;;;;;;5049445;28;20047;-75
2023/01/18 03:36:34;;;;;;;32.03;20.58;;;0.70;99.90;;;;;;5034076;28;20024;-75
2023/01/18 03:39:09;;;;;;;30.38;18.15;;;0.80;99.90;;;;;;5036892;28;20472;-74
2023/01/18 03:41:39;;;;;;;35.42;21.35;;;0.80;99.90;;;;;;5050214;28;20047;-75
2023/01/18 03:44:31;;;;;;;32.22;18.40;;;0.70;99.90;;;;;;5054619;28;20029;-74
2023/01/18 03:47:00;;;;;;;31.15;18.90;;;0.80;99.90;;;;;;5037007;28;20095;-73
2023/01/18 03:49:31;;;;;;;36.80;21.20;;;0.80;99.90;;;;;;5054890;28;20024;-74
2023/01/18 03:52:15;;;;;;;33.42;21.48;;;0.80;99.90;;;;;;5054983;28;20025;-74
2023/01/18 03:54:48;;;;;;;31.13;16.50;;;0.80;99.90;;;;;;5054617;28;20025;-76
2023/01/18 03:57:32;;;;;;;34.00;17.83;;;0.90;99.90;;;;;;5054497;28;20410;-77
2023/01/18 04:00:00;;;;;;;23.85;17.20;;;0.80;99.90;;;;;;5054687;28;20013;-75
2023/01/18 04:02:26;;;;;;;35.40;18.60;;;0.70;99.90;;;;;;5045848;28;20087;-73
2023/01/18 04:04:56;;;;;;;31.30;18.90;;;0.70;99.90;;;;;;5044909;28;20032;-74
2023/01/18 04:07:24;;;;;;;29.70;17.38;;;0.70;99.90;;;;;;5045076;28;20151;-76
2023/01/18 04:09:50;;;;;;;23.00;16.17;;;0.70;99.90;;;;;;5054295;28;20104;-75
2023/01/18 04:12:17;;;;;;;25.45;15.68;;;0.80;99.90;;;;;;5053187;28;20017;-75
2023/01/18 04:14:43;;;;;;;30.55;17.65;;;0.80;99.90;;;;;;5054321;28;20036;-75
2023/01/18 04:17:08;;;;;;;28.73;18.65;;;0.80;99.90;;;;;;5054241;28;20017;-76
2023/01/18 04:19:34;;;;;;;29.00;18.20;;;0.80;99.90;;;;;;5054291;28;20036;-75
2023/01/18 04:22:03;;;;;;;22.45;12.80;;;0.90;99.90;;;;;;5054076;28;20054;-75
2023/01/18 04:24:28;;;;;;;32.63;19.77;;;0.80;99.90;;;;;;5054095;28;20105;-76
2023/01/18 04:26:54;;;;;;;32.35;18.38;;;0.80;99.90;;;;;;5053968;28;20095;-74
2023/01/18 04:29:20;;;;;;;32.50;17.25;;;0.80;99.90;;;;;;5054027;28;20021;-74
2023/01/18 04:31:46;;;;;;;28.75;16.63;;;0.80;99.90;;;;;;5035331;28;20032;-77
2023/01/18 04:34:12;;;;;;;30.77;16.70;;;0.80;99.90;;;;;;5052931;28;20047;-75
2023/01/18 04:36:38;;;;;;;25.40;14.68;;;0.80;99.90;;;;;;5050028;28;20075;-75
2023/01/18 04:39:04;;;;;;;29.17;15.93;;;0.80;99.90;;;;;;5053805;28;20507;-76
2023/01/18 04:41:30;;;;;;;24.13;13.73;;;0.70;99.90;;;;;;5053822;28;20040;-76
2023/01/18 04:43:56;;;;;;;36.58;18.20;;;0.70;99.90;;;;;;5048485;28;20032;-74
2023/01/18 04:46:21;;;;;;;28.13;17.05;;;0.70;99.90;;;;;;5053102;28;20096;-75
2023/01/18 04:48:51;;;;;;;28.25;17.65;;;0.70;99.90;;;;;;5053142;28;20023;-76
2023/01/18 04:51:18;;;;;;;29.70;16.98;;;0.80;99.90;;;;;;5053334;28;20546;-75
2023/01/18 04:53:44;;;;;;;32.07;18.10;;;0.80;99.90;;;;;;5053739;28;20492;-75
2023/01/18 04:56:10;;;;;;;35.80;17.77;;;0.80;99.90;;;;;;5053267;28;20032;-73
2023/01/18 04:58:36;;;;;;;25.73;16.05;;;0.80;99.90;;;;;;5053370;28;20048;-75
2023/01/18 05:01:04;;;;;;;29.80;17.65;;;0.90;99.90;;;;;;5053542;28;20032;-73
2023/01/18 05:03:30;;;;;;;30.90;18.40;;;0.80;99.90;;;;;;5046684;28;20044;-75
2023/01/18 05:05:56;;;;;;;29.98;19.02;;;0.90;99.90;;;;;;5027771;28;20546;-75
2023/01/18 05:08:22;;;;;;;28.45;18.00;;;0.90;99.90;;;;;;5052800;28;20108;-76
2023/01/18 05:10:48;;;;;;;23.60;14.10;;;0.90;99.90;;;;;;5053184;28;20094;-75
2023/01/18 05:13:14;;;;;;;30.30;16.42;;;0.80;99.90;;;;;;5052871;28;20032;-74
2023/01/18 05:15:39;;;;;;;30.33;17.65;;;0.80;99.90;;;;;;5051450;28;20016;-74
2023/01/18 05:18:06;;;;;;;29.70;17.10;;;0.80;99.90;;;;;;5053282;28;20442;-73
2023/01/18 05:20:32;;;;;;;23.95;14.60;;;0.80;99.90;;;;;;5052767;28;20013;-74
2023/01/18 05:22:58;;;;;;;27.92;18.35;;;0.90;99.90;;;;;;5035045;28;20045;-75
2023/01/18 05:25:23;;;;;;;31.58;17.23;;;0.80;99.90;;;;;;5052774;28;20488;-75
2023/01/18 05:27:49;;;;;;;26.45;16.13;;;0.80;99.90;;;;;;5052891;28;20036;-76
2023/01/18 05:30:15;;;;;;;29.73;15.73;;;0.80;99.90;;;;;;5052692;28;20029;-76
2023/01/18 05:32:41;;;;;;;34.92;19.75;;;0.90;99.90;;;;;;5053033;28;20379;-74
2023/01/18 05:35:07;;;;;;;29.73;18.13;;;0.90;99.90;;;;;;5048113;28;20036;-75
2023/01/18 05:37:33;;;;;;;28.58;18.80;;;0.90;99.90;;;;;;5051476;28;20056;-75
2023/01/18 05:39:59;;;;;;;30.17;18.98;;;1.00;99.90;;;;;;5052695;28;20044;-74
2023/01/18 05:42:25;;;;;;;27.15;16.20;;;1.00;99.90;;;;;;5052365;28;20037;-75
2023/01/18 05:44:50;;;;;;;31.73;18.65;;;1.00;99.90;;;;;;5048126;28;20021;-75
2023/01/18 05:47:16;;;;;;;28.27;18.10;;;0.90;99.90;;;;;;5047486;28;20383;-75
2023/01/18 05:49:42;;;;;;;35.17;16.73;;;1.00;99.90;;;;;;5052189;28;20074;-74
2023/01/18 05:52:08;;;;;;;32.30;19.27;;;1.00;99.90;;;;;;5052252;28;20102;-74
2023/01/18 05:54:34;;;;;;;25.52;15.70;;;1.00;99.90;;;;;;5052184;28;20064;-75
2023/01/18 05:56:59;;;;;;;30.70;15.70;;;1.10;99.90;;;;;;5051336;28;20120;-76
2023/01/18 05:59:25;;;;;;;31.00;17.55;;;1.00;99.90;;;;;;5050986;28;20103;-78
2023/01/18 06:01:51;;;;;;;28.90;17.25;;;1.00;99.90;;;;;;5051597;28;20035;-76
2023/01/18 06:04:18;;;;;;;31.45;15.93;;;1.10;99.90;;;;;;5044667;28;20107;-76
2023/01/18 06:06:44;;;;;;;22.80;14.50;;;1.00;99.90;;;;;;5051930;28;20025;-74
2023/01/18 06:09:10;;;;;;;30.40;18.60;;;1.00;99.90;;;;;;5052263;28;20407;-75
2023/01/18 06:11:35;;;;;;;33.80;19.63;;;1.00;99.90;;;;;;5051996;28;20365;-77
2023/01/18 06:14:01;;;;;;;30.33;19.00;;;1.10;99.90;;;;;;5052098;28;20017;-76
2023/01/18 06:16:27;;;;;;;32.72;18.95;;;1.20;99.90;;;;;;5048837;28;20738;-75
2023/01/18 06:18:53;;;;;;;33.42;20.17;;;1.10;99.90;;;;;;5051566;28;20391;-79
2023/01/18 06:21:19;;;;;;;35.83;18.00;;;1.20;99.90;;;;;;5046136;28;20045;-76
2023/01/18 06:23:45;;;;;;;30.77;19.75;;;1.20;99.90;;;;;;5051841;28;20060;-78
2023/01/18 06:26:11;;;;;;;25.90;15.77;;;1.20;99.90;;;;;;5051928;28;20013;-78
2023/01/18 06:28:36;;;;;;;30.52;15.57;;;1.20;99.90;;;;;;5041521;28;20025;-78
2023/01/18 06:31:04;;;;;;;28.75;18.05;;;1.20;99.90;;;;;;5051487;28;20028;-78
2023/01/18 06:33:30;;;;;;;27.73;16.27;;;1.20;99.90;;;;;;5048039;28;20025;-80
2023/01/18 06:35:56;;;;;;;33.35;18.38;;;1.20;99.90;;;;;;5033219;28;20063;-76
2023/01/18 06:38:22;;;;;;;35.97;19.08;;;1.10;99.90;;;;;;5033508;28;20480;-77
2023/01/18 06:40:47;;;;;;;30.42;19.60;;;1.10;99.90;;;;;;5051706;28;20576;-75
2023/01/18 06:43:14;;;;;;;27.48;17.33;;;1.10;99.90;;;;;;5049278;28;20116;-77
2023/01/18 06:45:40;;;;;;;29.02;18.45;;;1.20;99.90;;;;;;5033776;28;20060;-77
2023/01/18 06:48:06;;;;;;;29.52;17.73;;;1.20;99.90;;;;;;5050475;28;20083;-78
2023/01/18 06:50:32;;;;;;;30.65;19.13;;;1.30;99.90;;;;;;5051336;28;20392;-77
2023/01/18 06:52:58;;;;;;;26.67;16.52;;;1.30;99.90;;;;;;5051486;28;20100;-77
2023/01/18 06:55:24;;;;;;;36.35;20.63;;;1.30;99.90;;;;;;5051228;28;20151;-76
2023/01/18 06:57:50;;;;;;;27.80;18.23;;;1.30;99.90;;;;;;5051130;28;20045;-77
2023/01/18 07:00:16;;;;;;;31.13;19.00;;;1.30;99.90;;;;;;5051066;28;20096;-77
2023/01/18 07:02:42;;;;;;;27.95;17.70;;;1.30;99.90;;;;;;5050136;28;20043;-77
2023/01/18 07:05:08;;;;;;;32.60;16.80;;;1.30;99.90;;;;;;5051145;28;20025;-75
2023/01/18 07:07:34;;;;;;;33.88;20.40;;;1.30;99.90;;;;;;5051672;28;20083;-77
2023/01/18 07:10:00;;;;;;;28.35;16.77;;;1.30;99.90;;;;;;5033737;28;20025;-77
2023/01/18 07:12:26;;;;;;;31.48;19.38;;;1.30;99.90;;;;;;5055133;28;20487;-78
2023/01/18 07:14:52;;;;;;;36.95;20.40;;;1.20;99.90;;;;;;5021369;28;20033;-77
2023/01/18 07:17:17;;;;;;;36.50;17.85;;;1.30;99.90;;;;;;5055557;28;20028;-75
2023/01/18 07:19:43;;;;;;;32.05;19.45;;;1.30;99.90;;;;;;5055864;28;20029;-77
2023/01/18 07:22:09;;;;;;;33.17;19.67;;;1.30;99.90;;;;;;5058238;28;20120;-78
2023/01/18 07:24:35;;;;;;;28.90;17.95;;;1.30;99.90;;;;;;5055850;28;20025;-77
2023/01/18 07:27:02;;;;;;;27.02;15.65;;;1.30;99.90;;;;;;5055737;28;20025;-76
2023/01/18 07:29:28;;;;;;;25.55;14.77;;;1.40;99.90;;;;;;5056185;28;20047;-75
2023/01/18 07:31:53;;;;;;;30.08;16.88;;;1.40;99.90;;;;;;5056346;28;20044;-76
2023/01/18 07:34:19;;;;;;;30.80;17.52;;;1.40;99.90;;;;;;5057747;28;20074;-74
2023/01/18 07:36:45;;;;;;;27.73;16.95;;;1.30;99.90;;;;;;5041279;28;20032;-77
2023/01/18 07:39:11;;;;;;;28.35;16.58;;;1.30;99.90;;;;;;5060203;28;20021;-77
2023/01/18 07:41:37;;;;;;;32.72;17.67;;;1.30;99.90;;;;;;5041862;28;20056;-77
2023/01/18 07:44:04;;;;;;;37.15;20.08;;;1.30;99.90;;;;;;5059472;28;20096;-76
2023/01/18 07:46:30;;;;;;;36.92;20.75;;;1.30;99.90;;;;;;5056556;28;20021;-77
2023/01/18 07:48:56;;;;;;;27.95;16.70;;;1.40;99.90;;;;;;5055135;28;20375;-76
2023/01/18 07:51:22;;;;;;;30.48;17.05;;;1.40;99.90;;;;;;5054922;28;20019;-77
2023/01/18 07:53:51;;;;;;;28.42;18.77;;;1.40;99.90;;;;;;5035713;28;20064;-76
2023/01/18 07:56:18;;;;;;;29.88;18.27;;;1.40;99.90;;;;;;5054934;28;20036;-78
2023/01/18 07:58:44;;;;;;;30.83;18.40;;;1.40;99.90;;;;;;5038564;28;20480;-77
2023/01/18 08:01:16;;;;;;;32.87;18.50;;;1.40;99.90;;;;;;5054741;28;20364;-77
2023/01/18 08:03:44;;;;;;;39.17;19.05;;;1.50;99.90;;;;;;5054818;28;20032;-77
2023/01/18 08:06:15;;;;;;;33.58;18.10;;;1.50;99.90;;;;;;5045352;28;20387;-77
2023/01/18 08:08:42;;;;;;;30.77;18.30;;;1.60;99.90;;;;;;5051397;28;20040;-77
2023/01/18 08:11:08;;;;;;;28.48;17.35;;;1.60;99.90;;;;;;5054766;28;20089;-78
2023/01/18 08:13:35;;;;;;;33.00;16.92;;;1.60;99.90;;;;;;5054583;28;20032;-77
2023/01/18 08:16:02;;;;;;;30.90;17.67;;;1.60;99.90;;;;;;5054566;28;20009;-77
2023/01/18 08:18:29;;;;;;;33.20;18.02;;;1.60;99.90;;;;;;5054469;28;20099;-76
2023/01/18 08:20:54;;;;;;;32.17;16.67;;;1.60;99.90;;;;;;5054210;28;20017;-75
2023/01/18 08:23:20;;;;;;;34.70;16.95;;;1.60;99.90;;;;;;5053156;28;20029;-76
2023/01/18 08:25:47;;;;;;;34.55;17.90;;;1.60;99.90;;;;;;5054246;28;20049;-77
2023/01/18 08:28:13;;;;;;;32.15;17.90;;;1.50;99.90;;;;;;5053207;28;20063;-75
2023/01/18 08:30:45;;;;;;;27.40;19.08;;;1.40;99.90;;;;;;5036278;28;20025;-77
2023/01/18 08:33:11;;;;;;;31.92;19.85;;;1.50;99.90;;;;;;5054271;28;20055;-77
2023/01/18 08:35:46;;;;;;;27.13;16.70;;;1.50;99.90;;;;;;5054144;28;20155;-77
2023/01/18 08:38:13;;;;;;;32.80;19.20;;;1.60;99.90;;;;;;5053936;28;20017;-77
2023/01/18 08:40:40;;;;;;;31.63;16.88;;;1.60;99.90;;;;;;5053710;28;20120;-76
2023/01/18 08:43:06;;;;;;;34.00;19.38;;;1.60;99.90;;;;;;5052716;28;20037;-75
2023/01/18 08:45:33;;;;;;;30.90;17.00;;;1.60;99.90;;;;;;5053893;28;20435;-77
2023/01/18 08:48:03;;;;;;;;;;;1.70;99.90;;;;;;5053993;28;20047;-77
2023/01/18 08:50:32;;;;;;;32.08;18.05;;;1.70;99.90;;;;;;5053762;28;19908;-77
2023/01/18 08:52:58;;;;;;;32.45;18.27;;;1.80;99.90;;;;;;5035339;28;20145;-78
2023/01/18 08:55:26;;;;;;;31.45;19.02;;;1.70;99.90;;;;;;5053392;28;20104;-77
2023/01/18 08:57:58;;;;;;;32.08;18.80;;;1.70;99.90;;;;;;5052929;28;20041;-77
2023/01/18 09:00:27;;;;;;;28.98;15.32;;;1.70;99.90;;;;;;5052523;28;20487;-75
2023/01/18 09:02:53;;;;;;;32.00;18.15;;;1.60;99.90;;;;;;5053002;28;20080;-75
2023/01/18 09:05:19;;;;;;;30.83;17.17;;;1.60;99.90;;;;;;5050029;28;20041;-77
2023/01/18 09:07:46;;;;;;;31.30;19.05;;;1.60;99.90;;;;;;5046840;28;20459;-76
2023/01/18 09:10:12;;;;;;;38.15;18.50;;;1.60;99.90;;;;;;5052782;28;20033;-78
2023/01/18 09:12:39;;;;;;;32.58;19.75;;;1.60;99.90;;;;;;5052936;28;20036;-76
2023/01/18 09:15:05;;;;;;;42.85;21.23;;;1.60;99.90;;;;;;5034300;28;20028;-78
2023/01/18 09:17:32;;;;;;;31.90;18.38;;;1.60;99.90;;;;;;5053187;28;20036;-76
2023/01/18 09:19:58;;;;;;;31.43;17.90;;;1.70;99.90;;;;;;5052995;28;20021;-77
2023/01/18 09:22:24;;;;;;;23.38;14.55;;;1.70;99.90;;;;;;5052706;28;20024;-77
2023/01/18 09:24:50;;;;;;;24.60;16.05;;;1.70;99.90;;;;;;5052937;28;20029;-78
2023/01/18 09:27:16;;;;;;;34.55;19.30;;;1.60;99.90;;;;;;5052681;28;20021;-76
2023/01/18 09:29:45;;;;;;;33.67;18.48;;;1.50;99.90;;;;;;5052792;28;20032;-78
2023/01/18 09:32:12;;;;;;;36.13;20.20;;;1.50;99.90;;;;;;5033362;28;20023;-77
2023/01/18 09:34:37;;;;;;;34.47;20.15;;;1.50;99.90;;;;;;5052791;28;20025;-76
2023/01/18 09:37:03;;;;;;;37.05;21.20;;;1.60;99.90;;;;;;5049273;28;20514;-75
2023/01/18 09:39:29;;;;;;;33.63;18.85;;;1.60;99.90;;;;;;5052509;28;20029;-77
2023/01/18 09:42:01;;;;;;;35.92;19.75;;;1.70;99.90;;;;;;5034705;28;20083;-76
2023/01/18 09:44:34;;;;;;;45.90;21.60;;;1.70;99.90;;;;;;5034748;28;20364;-76
2023/01/18 09:47:23;;;;;;;36.33;20.48;;;1.80;99.90;;;;;;5052640;28;20108;-78
2023/01/18 09:49:56;;;;;;;34.40;18.73;;;1.80;99.90;;;;;;5052670;28;20419;-77
2023/01/18 09:52:31;;;;;;;32.58;19.02;;;1.80;99.90;;;;;;5051206;28;20053;-77
2023/01/18 09:55:05;;;;;;;30.50;16.20;;;1.90;99.90;;;;;;5052595;28;20039;-77
2023/01/18 09:57:31;;;;;;;35.13;19.20;;;1.90;99.90;;;;;;5052564;28;20072;-77
2023/01/18 10:00:00;;;;;;;38.35;22.02;;;1.90;99.90;;;;;;5034021;28;20044;-77
2023/01/18 10:02:37;;;;;;;36.17;21.55;;;1.90;99.90;;;;;;5034749;28;20164;-76
2023/01/18 10:05:30;;;;;;;30.23;15.13;;;1.90;99.90;;;;;;5051210;28;20035;-77
2023/01/18 10:08:26;;;;;;;35.58;19.90;;;2.00;99.90;;;;;;5046248;28;20467;-76
2023/01/18 10:11:11;;;;;;;37.33;14.38;;;1.90;99.90;;;;;;5040097;28;20037;-78
2023/01/18 10:14:05;;;;;;;32.80;20.92;;;1.90;99.90;;;;;;5051647;28;20029;-76
2023/01/18 10:16:33;;;;;;;27.73;18.42;;;1.90;99.90;;;;;;5052331;28;20106;-77
2023/01/18 10:19:00;;;;;;;34.58;19.27;;;1.90;99.90;;;;;;5051768;28;20413;-77
2023/01/18 10:21:49;;;;;;;33.25;20.33;;;2.00;99.90;;;;;;5051974;28;20021;-76
2023/01/18 10:24:30;;;;;;;35.53;19.45;;;2.10;99.90;;;;;;5050528;28;20029;-77
2023/01/18 10:27:35;;;;;;;34.25;21.08;;;2.10;99.90;;;;;;5051727;28;20013;-77
2023/01/18 10:30:27;;;;;;;30.80;21.77;;;2.10;99.90;;;;;;4966156;28;20080;-76
2023/01/18 10:32:58;;;;;;;37.70;18.38;;;2.10;99.90;;;;;;5037889;28;20120;-77
2023/01/18 10:35:33;;;;;;;34.40;19.92;;;2.20;99.90;;;;;;5052301;28;20443;-78
2023/01/18 10:38:07;;;;;;;28.75;19.42;;;2.20;99.90;;;;;;5051721;28;20108;-78
2023/01/18 10:40:34;;;;;;;37.60;19.67;;;2.10;99.90;;;;;;5051804;28;20048;-77
2023/01/18 10:43:03;;;;;;;34.08;21.75;;;2.10;99.90;;;;;;5050523;28;20079;-78
2023/01/18 10:45:33;;;;;;;33.10;18.30;;;2.10;99.90;;;;;;5051324;28;20115;-77
2023/01/18 10:48:27;;;;;;;30.85;17.98;;;2.20;99.90;;;;;;5051585;28;20039;-77
2023/01/18 10:51:04;;;;;;;31.30;19.92;;;2.20;99.90;;;;;;5051627;28;20025;-78
2023/01/18 10:53:30;;;;;;;;;;;2.20;99.90;;;;;;5052015;28;20030;-76
2023/01/18 10:56:17;;;;;;;33.85;20.67;;;2.10;99.90;;;;;;5051667;28;19915;-79
2023/01/18 10:58:53;;;;;;;33.03;17.40;;;2.10;99.90;;;;;;5050337;28;20367;-78
2023/01/18 11:01:35;;;;;;;26.40;13.95;;;2.20;99.90;;;;;;5051325;28;20029;-77
2023/01/18 11:04:15;;;;;;;32.85;20.45;;;2.20;99.90;;;;;;5051322;28;20032;-77
2023/01/18 11:06:48;;;;;;;41.33;23.05;;;2.10;99.90;;;;;;5041700;28;20047;-77
2023/01/18 11:09:39;;;;;;;32.95;20.55;;;2.10;99.90;;;;;;5051263;28;20063;-79
2023/01/18 11:12:40;;;;;;;41.95;21.58;;;2.00;99.90;;;;;;5051389;28;20505;-78
2023/01/18 11:15:14;;;;;;;40.67;20.67;;;2.10;99.90;;;;;;5051057;28;20060;-77
2023/01/18 11:17:45;;;;;;;35.08;21.10;;;2.10;99.90;;;;;;5043937;28;20025;-78
2023/01/18 11:20:22;;;;;;;44.40;24.90;;;2.00;99.90;;;;;;5033158;28;20075;-78
2023/01/18 11:22:58;;;;;;;35.15;23.50;;;2.00;99.90;;;;;;5033604;28;20535;-77
2023/01/18 11:25:54;;;;;;;39.50;20.83;;;2.10;99.90;;;;;;5045643;28;20036;-76
2023/01/18 11:28:28;;;;;;;32.05;19.50;;;2.10;99.90;;;;;;5050731;28;20037;-77
2023/01/18 11:30:59;;;;;;;42.78;21.60;;;2.00;99.90;;;;;;5051090;28;20112;-77
2023/01/18 11:33:26;;;;;;;40.45;22.73;;;2.00;99.90;;;;;;5049925;28;20353;-77
2023/01/18 11:35:55;;;;;;;45.35;23.23;;;1.90;99.90;;;;;;5050838;28;20020;-77
2023/01/18 11:38:26;;;;;;;37.38;21.60;;;2.00;99.90;;;;;;5051105;28;20048;-77
2023/01/18 11:41:24;;;;;;;34.33;21.67;;;2.10;99.90;;;;;;5051373;28;20535;-77
2023/01/18 11:44:08;;;;;;;30.75;17.75;;;2.20;99.90;;;;;;5018078;28;20048;-76
2023/01/18 11:46:41;;;;;;;31.08;20.88;;;2.30;99.90;;;;;;5033181;28;20041;-76
2023/01/18 11:49:17;;;;;;;31.52;20.38;;;2.20;99.90;;;;;;5049841;28;20033;-77
2023/01/18 11:52:11;;;;;;;35.47;19.08;;;2.20;99.90;;;;;;5038106;28;20418;-77
2023/01/18 11:54:54;;;;;;;34.72;19.83;;;2.20;99.90;;;;;;5050714;28;20067;-78
2023/01/18 11:57:20;;;;;;;32.60;19.90;;;2.10;99.90;;;;;;5050904;28;20090;-77
2023/01/18 11:59:47;;;;;;;31.00;17.77;;;2.20;99.90;;;;;;5054351;28;20021;-76
2023/01/18 12:02:37;;;;;;;31.92;18.67;;;2.20;99.90;;;;;;5054585;28;20033;-75
2023/01/18 12:05:03;;;;;;;30.17;18.25;;;2.20;99.90;;;;;;5052606;28;20364;-77
2023/01/18 12:07:42;;;;;;;31.77;18.45;;;2.20;99.90;;;;;;5046461;28;20031;-76
2023/01/18 12:10:32;;;;;;;25.65;15.95;;;2.20;99.90;;;;;;5054790;28;20119;-77
2023/01/18 12:13:28;;;;;;;29.70;17.92;;;2.20;99.90;;;;;;5018826;28;20087;-77
2023/01/18 12:16:13;;;;;;;25.77;16.67;;;2.10;99.90;;;;;;5040614;28;20036;-77
2023/01/18 12:19:01;;;;;;;27.70;19.08;;;2.20;99.90;;;;;;5054012;28;20092;-76
2023/01/18 12:21:46;;;;;;;;;;;2.10;99.90;;;;;;5054689;28;20025;-78
2023/01/18 12:24:22;;;;;;;25.95;15.00;;;2.10;99.90;;;;;;5007499;28;19913;-76
2023/01/18 12:27:18;;;;;;;29.13;16.88;;;2.10;99.90;;;;;;5054271;28;20195;-78
2023/01/18 12:30:14;;;;;;;23.23;15.88;;;2.00;99.90;;;;;;5003457;28;20468;-78
2023/01/18 12:33:07;;;;;;;23.83;14.70;;;2.00;99.90;;;;;;5053079;28;20029;-77
2023/01/18 12:35:44;;;;;;;30.30;16.02;;;2.00;99.90;;;;;;5054006;28;20037;-77
2023/01/18 12:38:23;;;;;;;28.45;13.95;;;2.00;99.90;;;;;;5054155;28;20017;-76
2023/01/18 12:41:25;;;;;;;28.10;15.10;;;1.90;99.90;;;;;;5053785;28;20025;-77
2023/01/18 12:44:03;;;;;;;26.58;15.13;;;1.90;99.90;;;;;;5053809;28;20159;-77
2023/01/18 12:47:05;;;;;;;25.67;13.50;;;1.90;99.90;;;;;;5039931;28;20104;-77
2023/01/18 12:49:40;;;;;;;27.40;14.93;;;1.90;99.90;;;;;;5032298;28;20017;-77
2023/01/18 12:52:10;;;;;;;26.95;13.93;;;1.90;99.90;;;;;;5053856;28;20052;-78
2023/01/18 12:54:54;;;;;;;25.17;14.60;;;2.00;99.90;;;;;;5053417;28;20033;-75
2023/01/18 12:57:24;;;;;;;24.15;15.82;;;2.00;99.90;;;;;;5053176;28;20468;-77
2023/01/18 12:59:55;;;;;;;24.23;14.27;;;2.10;99.90;;;;;;5053743;28;20021;-78
2023/01/18 13:02:31;;;;;;;26.35;15.07;;;2.10;99.90;;;;;;5052674;28;20020;-76
2023/01/18 13:05:33;;;;;;;24.30;14.93;;;2.10;99.90;;;;;;5053273;28;20021;-76
2023/01/18 13:08:35;;;;;;;30.70;13.88;;;2.10;99.90;;;;;;5032450;28;20032;-78
2023/01/18 13:11:06;;;;;;;27.58;16.10;;;2.00;99.90;;;;;;5041678;28;20110;-76
2023/01/18 13:13:34;;;;;;;25.58;14.80;;;2.10;99.90;;;;;;5053201;28;20029;-76
2023/01/18 13:16:23;;;;;;;24.80;14.95;;;2.10;99.90;;;;;;5053660;28;20099;-76
2023/01/18 13:19:12;;;;;;;32.65;13.55;;;2.10;99.90;;;;;;5052148;28;20096;-77
2023/01/18 13:21:44;;;;;;;26.70;13.95;;;2.10;99.90;;;;;;5053156;28;20024;-76
2023/01/18 13:24:39;;;;;;;28.83;15.27;;;2.10;99.90;;;;;;5052871;28;20029;-77
2023/01/18 13:27:10;;;;;;;29.63;14.52;;;2.20;99.90;;;;;;5052824;28;20021;-76
2023/01/18 13:29:37;;;;;;;25.58;14.50;;;2.10;99.90;;;;;;5053018;28;20056;-77
2023/01/18 13:32:29;;;;;;;25.58;13.50;;;2.10;99.90;;;;;;5052727;28;20032;-76